sensor_id;sensor_type;location;lat;lon;timestamp;P1;durP1;ratioP1;P2;durP2;ratioP2
29662;SDS011;16578;53.266;7.920;2023-10-09T00:02:22;6.13;;;3.17;;
29662;SDS011;16578;53.266;7.920;2023-10-09T00:04:48;9.02;;;4.15;;
29662;SDS011;16578;53.266;7.920;2023-10-09T00:07:16;8.20;;;3.38;;
29662;SDS011;16578;53.266;7.920;2023-10-09T00:09:42;4.90;;;3.22;;
29662;SDS011;16578;53.266;7.920;2023-10-09T00:12:16;6.82;;;3.67;;
29662;SDS011;16578;53.266;7.920;2023-10-09T00:14:47;6.10;;;3.13;;
29662;SDS011;16578;53.266;7.920;2023-10-09T00:17:14;7.18;;;3.38;;
29662;SDS011;16578;53.266;7.920;2023-10-09T00:19:40;6.63;;;3.65;;
29662;SDS011;16578;53.266;7.920;2023-10-09T00:22:08;7.13;;;3.22;;
29662;SDS011;16578;53.266;7.920;2023-10-09T00:24:50;7.78;;;3.45;;
29662;SDS011;16578;53.266;7.920;2023-10-09T00:27:34;4.18;;;2.95;;
29662;SDS011;16578;53.266;7.920;2023-10-09T00:30:01;4.72;;;2.88;;
29662;SDS011;16578;53.266;7.920;2023-10-09T00:32:28;5.10;;;3.17;;
29662;SDS011;16578;53.266;7.920;2023-10-09T00:34:58;4.03;;;2.85;;
29662;SDS011;16578;53.266;7.920;2023-10-09T00:37:43;4.72;;;2.97;;
29662;SDS011;16578;53.266;7.920;2023-10-09T00:40:10;9.05;;;3.03;;
29662;SDS011;16578;53.266;7.920;2023-10-09T00:42:45;5.70;;;3.30;;
29662;SDS011;16578;53.266;7.920;2023-10-09T00:45:12;5.40;;;3.53;;
29662;SDS011;16578;53.266;7.920;2023-10-09T00:47:49;5.97;;;3.20;;
29662;SDS011;16578;53.266;7.920;2023-10-09T00:50:16;6.82;;;3.03;;
29662;SDS011;16578;53.266;7.920;2023-10-09T00:52:46;5.85;;;3.00;;
29662;SDS011;16578;53.266;7.920;2023-10-09T00:55:17;6.13;;;2.83;;
29662;SDS011;16578;53.266;7.920;2023-10-09T00:58:01;6.82;;;3.30;;
29662;SDS011;16578;53.266;7.920;2023-10-09T01:00:30;10.27;;;3.05;;
29662;SDS011;16578;53.266;7.920;2023-10-09T01:03:11;6.40;;;2.78;;
29662;SDS011;16578;53.266;7.920;2023-10-09T01:05:38;10.80;;;3.40;;
29662;SDS011;16578;53.266;7.920;2023-10-09T01:08:10;8.23;;;2.95;;
29662;SDS011;16578;53.266;7.920;2023-10-09T01:10:48;5.72;;;2.50;;
29662;SDS011;16578;53.266;7.920;2023-10-09T01:13:21;4.20;;;2.47;;
29662;SDS011;16578;53.266;7.920;2023-10-09T01:15:53;4.70;;;2.70;;
29662;SDS011;16578;53.266;7.920;2023-10-09T01:18:19;7.03;;;2.92;;
29662;SDS011;16578;53.266;7.920;2023-10-09T01:20:45;8.10;;;2.95;;
29662;SDS011;16578;53.266;7.920;2023-10-09T01:23:11;9.20;;;2.90;;
29662;SDS011;16578;53.266;7.920;2023-10-09T01:25:37;4.75;;;2.58;;
29662;SDS011;16578;53.266;7.920;2023-10-09T01:28:14;4.88;;;2.65;;
29662;SDS011;16578;53.266;7.920;2023-10-09T01:30:40;5.80;;;2.75;;
29662;SDS011;16578;53.266;7.920;2023-10-09T01:33:07;5.80;;;2.78;;
29662;SDS011;16578;53.266;7.920;2023-10-09T01:35:46;3.97;;;2.35;;
29662;SDS011;16578;53.266;7.920;2023-10-09T01:38:14;4.07;;;2.78;;
29662;SDS011;16578;53.266;7.920;2023-10-09T01:40:41;5.32;;;2.92;;
29662;SDS011;16578;53.266;7.920;2023-10-09T01:43:08;5.18;;;2.97;;
29662;SDS011;16578;53.266;7.920;2023-10-09T01:45:35;5.38;;;2.60;;
29662;SDS011;16578;53.266;7.920;2023-10-09T01:48:07;5.95;;;2.30;;
29662;SDS011;16578;53.266;7.920;2023-10-09T01:50:33;5.68;;;2.65;;
29662;SDS011;16578;53.266;7.920;2023-10-09T01:53:01;4.00;;;2.33;;
29662;SDS011;16578;53.266;7.920;2023-10-09T01:55:29;4.55;;;2.75;;
29662;SDS011;16578;53.266;7.920;2023-10-09T01:58:00;5.20;;;2.88;;
29662;SDS011;16578;53.266;7.920;2023-10-09T02:00:45;5.65;;;2.75;;
29662;SDS011;16578;53.266;7.920;2023-10-09T02:03:14;6.43;;;2.95;;
29662;SDS011;16578;53.266;7.920;2023-10-09T02:05:43;5.57;;;2.75;;
29662;SDS011;16578;53.266;7.920;2023-10-09T02:10:38;3.50;;;2.35;;
29662;SDS011;16578;53.266;7.920;2023-10-09T02:13:05;3.55;;;2.28;;
29662;SDS011;16578;53.266;7.920;2023-10-09T02:15:32;5.40;;;2.40;;
29662;SDS011;16578;53.266;7.920;2023-10-09T02:18:17;4.68;;;2.60;;
29662;SDS011;16578;53.266;7.920;2023-10-09T02:20:48;4.95;;;2.70;;
29662;SDS011;16578;53.266;7.920;2023-10-09T02:23:37;5.22;;;2.50;;
29662;SDS011;16578;53.266;7.920;2023-10-09T02:26:03;6.03;;;3.05;;
29662;SDS011;16578;53.266;7.920;2023-10-09T02:28:31;5.07;;;2.42;;
29662;SDS011;16578;53.266;7.920;2023-10-09T02:30:58;5.38;;;2.75;;
29662;SDS011;16578;53.266;7.920;2023-10-09T02:33:27;5.85;;;2.83;;
29662;SDS011;16578;53.266;7.920;2023-10-09T02:35:53;5.93;;;2.92;;
29662;SDS011;16578;53.266;7.920;2023-10-09T02:38:20;5.70;;;3.20;;
29662;SDS011;16578;53.266;7.920;2023-10-09T02:40:51;4.65;;;3.10;;
29662;SDS011;16578;53.266;7.920;2023-10-09T02:43:45;6.85;;;3.22;;
29662;SDS011;16578;53.266;7.920;2023-10-09T02:46:20;4.78;;;3.00;;
29662;SDS011;16578;53.266;7.920;2023-10-09T02:48:54;8.45;;;3.28;;
29662;SDS011;16578;53.266;7.920;2023-10-09T02:51:23;6.50;;;3.58;;
29662;SDS011;16578;53.266;7.920;2023-10-09T02:53:56;3.92;;;2.97;;
29662;SDS011;16578;53.266;7.920;2023-10-09T02:56:26;4.28;;;3.42;;
29662;SDS011;16578;53.266;7.920;2023-10-09T02:59:03;4.28;;;3.28;;
29662;SDS011;16578;53.266;7.920;2023-10-09T03:01:33;6.40;;;3.72;;
29662;SDS011;16578;53.266;7.920;2023-10-09T03:04:06;6.57;;;3.60;;
29662;SDS011;16578;53.266;7.920;2023-10-09T03:06:35;5.78;;;3.65;;
29662;SDS011;16578;53.266;7.920;2023-10-09T03:09:08;7.25;;;3.67;;
29662;SDS011;16578;53.266;7.920;2023-10-09T03:11:47;6.25;;;4.03;;
29662;SDS011;16578;53.266;7.920;2023-10-09T03:14:18;6.10;;;4.00;;
29662;SDS011;16578;53.266;7.920;2023-10-09T03:16:45;7.07;;;4.05;;
29662;SDS011;16578;53.266;7.920;2023-10-09T03:19:13;9.73;;;5.07;;
29662;SDS011;16578;53.266;7.920;2023-10-09T03:21:39;6.88;;;4.50;;
29662;SDS011;16578;53.266;7.920;2023-10-09T03:24:05;7.82;;;4.57;;
29662;SDS011;16578;53.266;7.920;2023-10-09T03:26:31;8.07;;;4.68;;
29662;SDS011;16578;53.266;7.920;2023-10-09T03:28:57;7.80;;;4.55;;
29662;SDS011;16578;53.266;7.920;2023-10-09T03:33:58;6.60;;;4.38;;
29662;SDS011;16578;53.266;7.920;2023-10-09T03:36:24;9.27;;;5.38;;
29662;SDS011;16578;53.266;7.920;2023-10-09T03:38:52;10.40;;;5.53;;
29662;SDS011;16578;53.266;7.920;2023-10-09T03:41:23;10.48;;;5.20;;
29662;SDS011;16578;53.266;7.920;2023-10-09T03:43:52;10.73;;;5.38;;
29662;SDS011;16578;53.266;7.920;2023-10-09T03:46:19;8.88;;;5.68;;
29662;SDS011;16578;53.266;7.920;2023-10-09T03:48:57;8.10;;;5.03;;
29662;SDS011;16578;53.266;7.920;2023-10-09T03:51:29;9.32;;;5.28;;
29662;SDS011;16578;53.266;7.920;2023-10-09T03:56:20;9.50;;;5.28;;
29662;SDS011;16578;53.266;7.920;2023-10-09T03:58:49;10.93;;;6.13;;
29662;SDS011;16578;53.266;7.920;2023-10-09T04:01:20;10.25;;;6.13;;
29662;SDS011;16578;53.266;7.920;2023-10-09T04:04:02;9.75;;;6.10;;
29662;SDS011;16578;53.266;7.920;2023-10-09T04:06:31;10.60;;;5.85;;
29662;SDS011;16578;53.266;7.920;2023-10-09T04:09:05;12.18;;;6.85;;
29662;SDS011;16578;53.266;7.920;2023-10-09T04:11:47;10.15;;;6.55;;
29662;SDS011;16578;53.266;7.920;2023-10-09T04:14:35;14.02;;;6.82;;
29662;SDS011;16578;53.266;7.920;2023-10-09T04:17:36;11.60;;;6.93;;
29662;SDS011;16578;53.266;7.920;2023-10-09T04:20:08;16.42;;;7.70;;
29662;SDS011;16578;53.266;7.920;2023-10-09T04:22:59;12.88;;;6.60;;
29662;SDS011;16578;53.266;7.920;2023-10-09T04:25:30;12.00;;;7.18;;
29662;SDS011;16578;53.266;7.920;2023-10-09T04:28:10;15.32;;;6.80;;
29662;SDS011;16578;53.266;7.920;2023-10-09T04:30:45;9.65;;;6.50;;
29662;SDS011;16578;53.266;7.920;2023-10-09T04:33:31;11.48;;;7.10;;
29662;SDS011;16578;53.266;7.920;2023-10-09T04:36:03;14.43;;;7.85;;
29662;SDS011;16578;53.266;7.920;2023-10-09T04:38:48;13.25;;;7.10;;
29662;SDS011;16578;53.266;7.920;2023-10-09T04:41:31;15.27;;;7.55;;
29662;SDS011;16578;53.266;7.920;2023-10-09T04:43:59;15.70;;;8.17;;
29662;SDS011;16578;53.266;7.920;2023-10-09T04:46:44;12.88;;;7.50;;
29662;SDS011;16578;53.266;7.920;2023-10-09T04:49:32;14.82;;;8.10;;
29662;SDS011;16578;53.266;7.920;2023-10-09T04:52:31;13.98;;;7.93;;
29662;SDS011;16578;53.266;7.920;2023-10-09T04:54:57;15.32;;;8.80;;
29662;SDS011;16578;53.266;7.920;2023-10-09T04:57:31;15.98;;;8.85;;
29662;SDS011;16578;53.266;7.920;2023-10-09T05:00:14;19.00;;;9.02;;
29662;SDS011;16578;53.266;7.920;2023-10-09T05:02:50;15.73;;;9.23;;
29662;SDS011;16578;53.266;7.920;2023-10-09T05:05:23;15.00;;;9.02;;
29662;SDS011;16578;53.266;7.920;2023-10-09T05:08:11;13.25;;;8.65;;
29662;SDS011;16578;53.266;7.920;2023-10-09T05:10:50;18.77;;;9.95;;
29662;SDS011;16578;53.266;7.920;2023-10-09T05:13:29;19.70;;;10.90;;
29662;SDS011;16578;53.266;7.920;2023-10-09T05:16:14;19.55;;;9.95;;
29662;SDS011;16578;53.266;7.920;2023-10-09T05:18:45;26.10;;;11.57;;
29662;SDS011;16578;53.266;7.920;2023-10-09T05:21:21;21.88;;;11.55;;
29662;SDS011;16578;53.266;7.920;2023-10-09T05:23:56;23.77;;;12.02;;
29662;SDS011;16578;53.266;7.920;2023-10-09T05:26:41;23.00;;;12.95;;
29662;SDS011;16578;53.266;7.920;2023-10-09T05:31:47;21.05;;;12.15;;
29662;SDS011;16578;53.266;7.920;2023-10-09T05:34:28;23.65;;;12.50;;
29662;SDS011;16578;53.266;7.920;2023-10-09T05:37:06;22.42;;;13.50;;
29662;SDS011;16578;53.266;7.920;2023-10-09T05:39:53;23.30;;;12.82;;
29662;SDS011;16578;53.266;7.920;2023-10-09T05:42:28;22.65;;;13.13;;
29662;SDS011;16578;53.266;7.920;2023-10-09T05:50:18;27.83;;;14.05;;
29662;SDS011;16578;53.266;7.920;2023-10-09T05:52:47;22.60;;;13.45;;
29662;SDS011;16578;53.266;7.920;2023-10-09T05:55:19;24.48;;;14.40;;
29662;SDS011;16578;53.266;7.920;2023-10-09T05:57:51;22.33;;;13.73;;
29662;SDS011;16578;53.266;7.920;2023-10-09T06:00:39;22.85;;;13.07;;
29662;SDS011;16578;53.266;7.920;2023-10-09T06:03:23;26.27;;;13.98;;
29662;SDS011;16578;53.266;7.920;2023-10-09T06:05:55;26.40;;;14.77;;
29662;SDS011;16578;53.266;7.920;2023-10-09T06:08:21;24.63;;;13.00;;
29662;SDS011;16578;53.266;7.920;2023-10-09T06:11:06;26.30;;;13.93;;
29662;SDS011;16578;53.266;7.920;2023-10-09T06:13:54;24.65;;;13.50;;
29662;SDS011;16578;53.266;7.920;2023-10-09T06:16:27;24.02;;;14.63;;
29662;SDS011;16578;53.266;7.920;2023-10-09T06:19:24;22.17;;;13.52;;
29662;SDS011;16578;53.266;7.920;2023-10-09T06:21:55;23.67;;;13.77;;
29662;SDS011;16578;53.266;7.920;2023-10-09T06:24:36;22.30;;;13.80;;
29662;SDS011;16578;53.266;7.920;2023-10-09T06:27:08;26.42;;;14.63;;
29662;SDS011;16578;53.266;7.920;2023-10-09T06:29:42;25.33;;;13.88;;
29662;SDS011;16578;53.266;7.920;2023-10-09T06:32:13;21.17;;;13.38;;
29662;SDS011;16578;53.266;7.920;2023-10-09T06:37:40;23.98;;;13.63;;
29662;SDS011;16578;53.266;7.920;2023-10-09T06:40:34;21.17;;;13.07;;
29662;SDS011;16578;53.266;7.920;2023-10-09T06:43:19;24.10;;;13.85;;
29662;SDS011;16578;53.266;7.920;2023-10-09T06:45:49;23.00;;;14.50;;
29662;SDS011;16578;53.266;7.920;2023-10-09T06:48:25;25.27;;;15.02;;
29662;SDS011;16578;53.266;7.920;2023-10-09T06:51:07;26.63;;;14.40;;
29662;SDS011;16578;53.266;7.920;2023-10-09T06:53:52;22.48;;;13.60;;
29662;SDS011;16578;53.266;7.920;2023-10-09T06:59:44;23.00;;;14.02;;
29662;SDS011;16578;53.266;7.920;2023-10-09T07:02:29;24.17;;;13.93;;
29662;SDS011;16578;53.266;7.920;2023-10-09T07:05:10;27.30;;;14.88;;
29662;SDS011;16578;53.266;7.920;2023-10-09T07:07:42;28.30;;;16.10;;
29662;SDS011;16578;53.266;7.920;2023-10-09T07:10:16;24.20;;;14.20;;
29662;SDS011;16578;53.266;7.920;2023-10-09T07:12:54;27.75;;;15.60;;
29662;SDS011;16578;53.266;7.920;2023-10-09T07:15:22;26.07;;;14.90;;
29662;SDS011;16578;53.266;7.920;2023-10-09T07:18:06;25.23;;;13.70;;
29662;SDS011;16578;53.266;7.920;2023-10-09T07:20:44;26.83;;;13.77;;
29662;SDS011;16578;53.266;7.920;2023-10-09T07:30:02;23.15;;;13.38;;
29662;SDS011;16578;53.266;7.920;2023-10-09T07:33:06;22.02;;;12.50;;
29662;SDS011;16578;53.266;7.920;2023-10-09T07:39:25;19.83;;;12.30;;
29662;SDS011;16578;53.266;7.920;2023-10-09T07:42:04;22.67;;;13.73;;
29662;SDS011;16578;53.266;7.920;2023-10-09T07:44:51;26.35;;;13.40;;
29662;SDS011;16578;53.266;7.920;2023-10-09T07:47:22;24.23;;;15.20;;
29662;SDS011;16578;53.266;7.920;2023-10-09T07:50:08;22.75;;;14.27;;
29662;SDS011;16578;53.266;7.920;2023-10-09T07:52:36;22.85;;;13.50;;
29662;SDS011;16578;53.266;7.920;2023-10-09T07:58:19;21.17;;;13.57;;
29662;SDS011;16578;53.266;7.920;2023-10-09T08:00:50;24.33;;;12.60;;
29662;SDS011;16578;53.266;7.920;2023-10-09T08:03:29;23.98;;;13.30;;
29662;SDS011;16578;53.266;7.920;2023-10-09T08:05:58;19.40;;;12.60;;
29662;SDS011;16578;53.266;7.920;2023-10-09T08:08:43;18.60;;;11.55;;
29662;SDS011;16578;53.266;7.920;2023-10-09T08:11:43;22.70;;;12.35;;
29662;SDS011;16578;53.266;7.920;2023-10-09T08:14:38;19.33;;;13.55;;
29662;SDS011;16578;53.266;7.920;2023-10-09T08:17:08;22.63;;;12.23;;
29662;SDS011;16578;53.266;7.920;2023-10-09T08:19:49;19.90;;;11.88;;
29662;SDS011;16578;53.266;7.920;2023-10-09T08:22:36;19.92;;;11.77;;
29662;SDS011;16578;53.266;7.920;2023-10-09T08:35:22;16.58;;;10.05;;
29662;SDS011;16578;53.266;7.920;2023-10-09T08:37:59;13.32;;;8.48;;
29662;SDS011;16578;53.266;7.920;2023-10-09T08:40:33;17.75;;;10.77;;
29662;SDS011;16578;53.266;7.920;2023-10-09T08:45:56;16.20;;;8.38;;
29662;SDS011;16578;53.266;7.920;2023-10-09T08:48:28;15.57;;;9.70;;
29662;SDS011;16578;53.266;7.920;2023-10-09T08:50:55;15.18;;;10.07;;
29662;SDS011;16578;53.266;7.920;2023-10-09T08:53:22;15.98;;;8.27;;
29662;SDS011;16578;53.266;7.920;2023-10-09T08:55:49;16.70;;;9.53;;
29662;SDS011;16578;53.266;7.920;2023-10-09T08:58:18;17.48;;;9.52;;
29662;SDS011;16578;53.266;7.920;2023-10-09T09:01:06;16.02;;;8.70;;
29662;SDS011;16578;53.266;7.920;2023-10-09T09:03:38;18.60;;;7.88;;
29662;SDS011;16578;53.266;7.920;2023-10-09T09:06:06;13.77;;;8.13;;
29662;SDS011;16578;53.266;7.920;2023-10-09T09:08:32;17.98;;;8.38;;
29662;SDS011;16578;53.266;7.920;2023-10-09T09:11:08;14.82;;;8.48;;
29662;SDS011;16578;53.266;7.920;2023-10-09T09:13:48;13.23;;;8.10;;
29662;SDS011;16578;53.266;7.920;2023-10-09T09:16:40;12.82;;;7.20;;
29662;SDS011;16578;53.266;7.920;2023-10-09T09:19:09;16.48;;;7.88;;
29662;SDS011;16578;53.266;7.920;2023-10-09T09:22:08;15.05;;;7.22;;
29662;SDS011;16578;53.266;7.920;2023-10-09T09:24:39;14.00;;;7.10;;
29662;SDS011;16578;53.266;7.920;2023-10-09T09:27:12;16.15;;;5.93;;
29662;SDS011;16578;53.266;7.920;2023-10-09T09:29:42;17.27;;;7.50;;
29662;SDS011;16578;53.266;7.920;2023-10-09T09:32:17;10.55;;;6.07;;
29662;SDS011;16578;53.266;7.920;2023-10-09T09:35:00;15.30;;;6.88;;
29662;SDS011;16578;53.266;7.920;2023-10-09T09:37:29;12.82;;;6.88;;
29662;SDS011;16578;53.266;7.920;2023-10-09T09:40:15;12.25;;;7.25;;
29662;SDS011;16578;53.266;7.920;2023-10-09T09:42:53;12.52;;;6.30;;
29662;SDS011;16578;53.266;7.920;2023-10-09T09:45:30;15.98;;;6.97;;
29662;SDS011;16578;53.266;7.920;2023-10-09T09:48:11;13.38;;;6.82;;
29662;SDS011;16578;53.266;7.920;2023-10-09T09:50:40;10.15;;;6.05;;
29662;SDS011;16578;53.266;7.920;2023-10-09T09:53:10;13.80;;;6.85;;
29662;SDS011;16578;53.266;7.920;2023-10-09T09:55:41;12.48;;;7.13;;
29662;SDS011;16578;53.266;7.920;2023-10-09T09:58:20;11.05;;;6.75;;
29662;SDS011;16578;53.266;7.920;2023-10-09T10:00:49;12.80;;;7.13;;
29662;SDS011;16578;53.266;7.920;2023-10-09T10:03:22;13.52;;;6.35;;
29662;SDS011;16578;53.266;7.920;2023-10-09T10:05:51;12.75;;;6.78;;
29662;SDS011;16578;53.266;7.920;2023-10-09T10:08:20;9.55;;;6.13;;
29662;SDS011;16578;53.266;7.920;2023-10-09T10:10:47;10.18;;;6.15;;
29662;SDS011;16578;53.266;7.920;2023-10-09T10:13:17;14.68;;;6.22;;
29662;SDS011;16578;53.266;7.920;2023-10-09T10:18:30;11.18;;;6.10;;
29662;SDS011;16578;53.266;7.920;2023-10-09T10:21:15;11.00;;;6.18;;
29662;SDS011;16578;53.266;7.920;2023-10-09T10:23:41;10.02;;;5.80;;
29662;SDS011;16578;53.266;7.920;2023-10-09T10:26:16;10.70;;;5.88;;
29662;SDS011;16578;53.266;7.920;2023-10-09T10:31:52;14.88;;;6.00;;
29662;SDS011;16578;53.266;7.920;2023-10-09T10:34:23;10.82;;;5.38;;
29662;SDS011;16578;53.266;7.920;2023-10-09T10:36:50;11.02;;;5.38;;
29662;SDS011;16578;53.266;7.920;2023-10-09T10:39:23;10.30;;;5.95;;
29662;SDS011;16578;53.266;7.920;2023-10-09T10:42:07;10.20;;;4.95;;
29662;SDS011;16578;53.266;7.920;2023-10-09T10:44:52;11.80;;;5.28;;
29662;SDS011;16578;53.266;7.920;2023-10-09T10:47:18;8.20;;;4.90;;
29662;SDS011;16578;53.266;7.920;2023-10-09T10:52:24;9.27;;;4.10;;
29662;SDS011;16578;53.266;7.920;2023-10-09T10:55:13;9.20;;;3.53;;
29662;SDS011;16578;53.266;7.920;2023-10-09T10:58:03;5.80;;;3.20;;
29662;SDS011;16578;53.266;7.920;2023-10-09T11:00:39;3.42;;;2.47;;
29662;SDS011;16578;53.266;7.920;2023-10-09T11:03:25;6.20;;;2.92;;
29662;SDS011;16578;53.266;7.920;2023-10-09T11:06:09;4.82;;;2.70;;
29662;SDS011;16578;53.266;7.920;2023-10-09T11:08:43;7.47;;;3.17;;
29662;SDS011;16578;53.266;7.920;2023-10-09T11:11:19;4.47;;;2.95;;
29662;SDS011;16578;53.266;7.920;2023-10-09T11:13:45;5.43;;;3.00;;
29662;SDS011;16578;53.266;7.920;2023-10-09T11:16:31;8.15;;;2.30;;
29662;SDS011;16578;53.266;7.920;2023-10-09T11:19:11;6.07;;;3.15;;
29662;SDS011;16578;53.266;7.920;2023-10-09T11:21:58;6.40;;;3.13;;
29662;SDS011;16578;53.266;7.920;2023-10-09T11:24:30;4.90;;;3.00;;
29662;SDS011;16578;53.266;7.920;2023-10-09T11:27:00;5.78;;;2.67;;
29662;SDS011;16578;53.266;7.920;2023-10-09T11:29:47;5.25;;;3.10;;
29662;SDS011;16578;53.266;7.920;2023-10-09T11:32:17;6.03;;;2.42;;
29662;SDS011;16578;53.266;7.920;2023-10-09T11:34:51;4.45;;;2.60;;
29662;SDS011;16578;53.266;7.920;2023-10-09T11:37:35;6.15;;;3.08;;
29662;SDS011;16578;53.266;7.920;2023-10-09T11:40:04;6.15;;;3.17;;
29662;SDS011;16578;53.266;7.920;2023-10-09T11:42:48;6.43;;;3.13;;
29662;SDS011;16578;53.266;7.920;2023-10-09T11:45:21;6.53;;;2.80;;
29662;SDS011;16578;53.266;7.920;2023-10-09T11:47:50;4.43;;;2.63;;
29662;SDS011;16578;53.266;7.920;2023-10-09T11:50:36;5.38;;;2.70;;
29662;SDS011;16578;53.266;7.920;2023-10-09T11:53:43;7.50;;;3.33;;
29662;SDS011;16578;53.266;7.920;2023-10-09T11:56:11;8.23;;;3.60;;
29662;SDS011;16578;53.266;7.920;2023-10-09T11:58:41;5.72;;;3.10;;
29662;SDS011;16578;53.266;7.920;2023-10-09T12:01:11;9.18;;;3.58;;
29662;SDS011;16578;53.266;7.920;2023-10-09T12:03:48;4.47;;;2.75;;
29662;SDS011;16578;53.266;7.920;2023-10-09T12:06:15;8.27;;;3.22;;
29662;SDS011;16578;53.266;7.920;2023-10-09T12:08:44;9.77;;;3.25;;
29662;SDS011;16578;53.266;7.920;2023-10-09T12:11:12;10.63;;;3.60;;
29662;SDS011;16578;53.266;7.920;2023-10-09T12:13:39;6.88;;;3.72;;
29662;SDS011;16578;53.266;7.920;2023-10-09T12:16:07;7.45;;;3.03;;
29662;SDS011;16578;53.266;7.920;2023-10-09T12:18:36;6.88;;;3.03;;
29662;SDS011;16578;53.266;7.920;2023-10-09T12:21:04;9.18;;;3.20;;
29662;SDS011;16578;53.266;7.920;2023-10-09T12:23:31;7.43;;;3.05;;
29662;SDS011;16578;53.266;7.920;2023-10-09T12:26:03;7.50;;;2.45;;
29662;SDS011;16578;53.266;7.920;2023-10-09T12:28:29;5.25;;;2.70;;
29662;SDS011;16578;53.266;7.920;2023-10-09T12:30:57;7.70;;;2.72;;
29662;SDS011;16578;53.266;7.920;2023-10-09T12:33:26;9.57;;;3.40;;
29662;SDS011;16578;53.266;7.920;2023-10-09T12:35:53;10.98;;;3.63;;
29662;SDS011;16578;53.266;7.920;2023-10-09T12:38:25;7.88;;;3.70;;
29662;SDS011;16578;53.266;7.920;2023-10-09T12:41:06;7.80;;;3.53;;
29662;SDS011;16578;53.266;7.920;2023-10-09T12:43:48;6.32;;;2.40;;
29662;SDS011;16578;53.266;7.920;2023-10-09T12:46:13;8.43;;;2.83;;
29662;SDS011;16578;53.266;7.920;2023-10-09T12:48:43;8.07;;;2.78;;
29662;SDS011;16578;53.266;7.920;2023-10-09T12:51:13;9.85;;;3.63;;
29662;SDS011;16578;53.266;7.920;2023-10-09T12:56:11;8.45;;;3.13;;
29662;SDS011;16578;53.266;7.920;2023-10-09T12:58:37;8.80;;;3.20;;
29662;SDS011;16578;53.266;7.920;2023-10-09T13:01:03;7.57;;;3.08;;
29662;SDS011;16578;53.266;7.920;2023-10-09T13:03:36;8.23;;;3.00;;
29662;SDS011;16578;53.266;7.920;2023-10-09T13:06:05;6.20;;;2.92;;
29662;SDS011;16578;53.266;7.920;2023-10-09T13:08:37;6.32;;;2.75;;
29662;SDS011;16578;53.266;7.920;2023-10-09T13:11:06;7.45;;;2.42;;
29662;SDS011;16578;53.266;7.920;2023-10-09T13:13:40;7.07;;;2.58;;
29662;SDS011;16578;53.266;7.920;2023-10-09T13:16:11;7.53;;;2.83;;
29662;SDS011;16578;53.266;7.920;2023-10-09T13:18:50;8.25;;;3.45;;
29662;SDS011;16578;53.266;7.920;2023-10-09T13:21:17;9.10;;;3.55;;
29662;SDS011;16578;53.266;7.920;2023-10-09T13:23:44;6.90;;;2.35;;
29662;SDS011;16578;53.266;7.920;2023-10-09T13:26:14;9.70;;;3.13;;
29662;SDS011;16578;53.266;7.920;2023-10-09T13:28:47;8.55;;;2.58;;
29662;SDS011;16578;53.266;7.920;2023-10-09T13:31:14;5.75;;;2.67;;
29662;SDS011;16578;53.266;7.920;2023-10-09T13:33:40;5.50;;;2.25;;
29662;SDS011;16578;53.266;7.920;2023-10-09T13:36:07;7.63;;;2.60;;
29662;SDS011;16578;53.266;7.920;2023-10-09T13:38:53;8.68;;;2.78;;
29662;SDS011;16578;53.266;7.920;2023-10-09T13:41:20;11.05;;;2.65;;
29662;SDS011;16578;53.266;7.920;2023-10-09T13:43:46;9.02;;;2.55;;
29662;SDS011;16578;53.266;7.920;2023-10-09T13:46:12;8.73;;;2.95;;
29662;SDS011;16578;53.266;7.920;2023-10-09T13:48:41;7.03;;;2.40;;
29662;SDS011;16578;53.266;7.920;2023-10-09T13:51:11;4.68;;;2.28;;
29662;SDS011;16578;53.266;7.920;2023-10-09T13:53:52;5.53;;;2.50;;
29662;SDS011;16578;53.266;7.920;2023-10-09T13:56:18;8.40;;;3.13;;
29662;SDS011;16578;53.266;7.920;2023-10-09T13:58:49;4.53;;;1.95;;
29662;SDS011;16578;53.266;7.920;2023-10-09T14:01:19;9.55;;;3.22;;
29662;SDS011;16578;53.266;7.920;2023-10-09T14:03:54;6.50;;;2.33;;
29662;SDS011;16578;53.266;7.920;2023-10-09T14:06:24;6.13;;;2.00;;
29662;SDS011;16578;53.266;7.920;2023-10-09T14:08:56;9.02;;;2.05;;
29662;SDS011;16578;53.266;7.920;2023-10-09T14:11:29;5.97;;;1.98;;
29662;SDS011;16578;53.266;7.920;2023-10-09T14:14:02;6.93;;;2.17;;
29662;SDS011;16578;53.266;7.920;2023-10-09T14:16:35;10.88;;;2.15;;
29662;SDS011;16578;53.266;7.920;2023-10-09T14:19:01;3.95;;;1.70;;
29662;SDS011;16578;53.266;7.920;2023-10-09T14:21:32;4.53;;;1.73;;
29662;SDS011;16578;53.266;7.920;2023-10-09T14:24:00;5.45;;;2.08;;
29662;SDS011;16578;53.266;7.920;2023-10-09T14:26:26;4.05;;;1.63;;
29662;SDS011;16578;53.266;7.920;2023-10-09T14:28:53;5.63;;;2.20;;
29662;SDS011;16578;53.266;7.920;2023-10-09T14:31:21;6.75;;;1.70;;
29662;SDS011;16578;53.266;7.920;2023-10-09T14:33:55;6.88;;;1.70;;
29662;SDS011;16578;53.266;7.920;2023-10-09T14:36:21;3.63;;;1.92;;
29662;SDS011;16578;53.266;7.920;2023-10-09T14:38:51;3.53;;;1.80;;
29662;SDS011;16578;53.266;7.920;2023-10-09T14:41:21;8.52;;;2.25;;
29662;SDS011;16578;53.266;7.920;2023-10-09T14:43:51;8.57;;;2.67;;
29662;SDS011;16578;53.266;7.920;2023-10-09T14:46:17;5.45;;;1.77;;
29662;SDS011;16578;53.266;7.920;2023-10-09T14:48:50;5.00;;;2.17;;
29662;SDS011;16578;53.266;7.920;2023-10-09T14:51:18;6.30;;;2.42;;
29662;SDS011;16578;53.266;7.920;2023-10-09T14:53:51;5.10;;;1.65;;
29662;SDS011;16578;53.266;7.920;2023-10-09T14:56:24;8.13;;;2.30;;
29662;SDS011;16578;53.266;7.920;2023-10-09T14:58:54;4.60;;;1.75;;
29662;SDS011;16578;53.266;7.920;2023-10-09T15:01:24;7.95;;;2.25;;
29662;SDS011;16578;53.266;7.920;2023-10-09T15:03:50;6.03;;;1.80;;
29662;SDS011;16578;53.266;7.920;2023-10-09T15:06:20;12.88;;;2.15;;
29662;SDS011;16578;53.266;7.920;2023-10-09T15:08:46;8.32;;;2.17;;
29662;SDS011;16578;53.266;7.920;2023-10-09T15:11:12;3.60;;;1.55;;
29662;SDS011;16578;53.266;7.920;2023-10-09T15:13:39;4.67;;;1.70;;
29662;SDS011;16578;53.266;7.920;2023-10-09T15:16:05;4.38;;;1.45;;
29662;SDS011;16578;53.266;7.920;2023-10-09T15:18:31;6.13;;;1.40;;
29662;SDS011;16578;53.266;7.920;2023-10-09T15:21:02;5.07;;;1.85;;
29662;SDS011;16578;53.266;7.920;2023-10-09T15:23:28;6.25;;;2.20;;
29662;SDS011;16578;53.266;7.920;2023-10-09T15:25:53;5.72;;;1.58;;
29662;SDS011;16578;53.266;7.920;2023-10-09T15:28:22;5.93;;;1.63;;
29662;SDS011;16578;53.266;7.920;2023-10-09T15:30:48;7.30;;;1.63;;
29662;SDS011;16578;53.266;7.920;2023-10-09T15:33:17;10.60;;;1.88;;
29662;SDS011;16578;53.266;7.920;2023-10-09T15:35:46;5.78;;;1.30;;
29662;SDS011;16578;53.266;7.920;2023-10-09T15:40:54;8.02;;;1.23;;
29662;SDS011;16578;53.266;7.920;2023-10-09T15:43:20;3.35;;;0.80;;
29662;SDS011;16578;53.266;7.920;2023-10-09T15:45:46;2.63;;;0.90;;
29662;SDS011;16578;53.266;7.920;2023-10-09T15:48:14;3.35;;;1.15;;
29662;SDS011;16578;53.266;7.920;2023-10-09T15:50:44;5.82;;;1.35;;
29662;SDS011;16578;53.266;7.920;2023-10-09T15:53:14;3.25;;;1.35;;
29662;SDS011;16578;53.266;7.920;2023-10-09T15:55:42;2.95;;;0.98;;
29662;SDS011;16578;53.266;7.920;2023-10-09T15:58:08;3.60;;;1.17;;
29662;SDS011;16578;53.266;7.920;2023-10-09T16:00:34;1.83;;;0.98;;
29662;SDS011;16578;53.266;7.920;2023-10-09T16:03:00;2.15;;;0.95;;
29662;SDS011;16578;53.266;7.920;2023-10-09T16:05:26;5.30;;;1.45;;
29662;SDS011;16578;53.266;7.920;2023-10-09T16:07:52;3.47;;;0.95;;
29662;SDS011;16578;53.266;7.920;2023-10-09T16:10:19;4.82;;;1.00;;
29662;SDS011;16578;53.266;7.920;2023-10-09T16:12:46;3.20;;;1.20;;
29662;SDS011;16578;53.266;7.920;2023-10-09T16:15:12;7.28;;;1.10;;
29662;SDS011;16578;53.266;7.920;2023-10-09T16:17:39;4.40;;;1.20;;
29662;SDS011;16578;53.266;7.920;2023-10-09T16:20:07;8.43;;;1.27;;